x

Portlock Bank- 76nm Ene Of Kodiak, Ak (46080) Weather Station

3:50pm - Wed 24th Aug 2016 All times are AKDT. -8 hours from GMT.

  • Wind
    11mph, 13mph gusts
  • Sea Temp 55°f
  • Air Temp 57°f
  • Sea Pressure 1026.5mb
  • Portlock Bank- 76nm Ene Of Kodiak, Ak
  • Portlock Bank- 76nm Ene Of Kodiak, Ak

More Historic Weather Station data

Upgrade to MSW Pro to gain access to the past 30 days of data for over 8000 Wavebouys and Weather Stations around the globe.

Join Pro

Comparision Forecast

View Surf forecast
   
Wed 08/24 3:50pm  -   -   -  11 13 mph 1026.5mb 55f 57f
2:50pm  -   -   -  11 13 mph 1026.3mb 55f 57f
1:50pm 6ft  -  5s 16 18 mph 1025.8mb 55f 58f
12:50pm 6ft 7s 5s 16 18 mph 1025.5mb 55f 58f
11:50am 6ft 5s 5s 13 16 mph 1025mb 55f 57f
10:50am 6.5ft 7s 5s 16 18 mph 1024.2mb 55f 57f
8:50am 5.5ft 6s  -  16 18 mph 1022.4mb 55f 58f
7:50am 5ft 7s  -  13 16 mph 1021.9mb 55f 58f
6:50am  -   -   -  16 18 mph - 55f 58f
5:50am 5ft  -  5s 16 18 mph 1020.9mb 55f 57f
4:50am 5ft 7s 5s 18 20 mph 1020.5mb 55f 57f
3:50am 5ft 8s  -  16 20 mph 1020.3mb 55f 58f
2:50am  -   -   -  13 16 mph 1020.3mb 55f 57f
1:50am 5.5ft  -  5s 13 16 mph 1020.4mb 55f 57f
12:50am 5.5ft 8s  -  16 18 mph 1020.4mb 55f 57f
Tue 08/23 11:50pm 5ft  -  6s 13 16 mph 1020.4mb 55f 57f
10:50pm 5ft 8s  -  13 16 mph 1020.3mb 55f 58f
9:50pm  -   -   -  11 13 mph 1019.9mb 55f 57f
8:50pm 6ft  -  6s 11 13 mph 1019.6mb 55f 57f
7:50pm 6ft 8s  -  11
mph
1019.3mb 55f 57f
6:50pm 6ft  -  6s 7 9 mph 1019mb 55f 57f
5:50pm 6ft 8s 6s 9 11 mph 1018.7mb 55f 57f
4:50pm 6ft 8s  -  9 11 mph 1018.3mb 56f 57f
3:50pm 7ft  -  6s 9
mph
1017.7mb 56f 57f
2:50pm 7ft 8s 7s 9 11 mph 1017.3mb 56f 57f
1:50pm 7ft 8s  -  7 9 mph 1016.7mb 55f 57f
11:50am 8ft  -  7s 7 9 mph 1015.4mb 55f 56f
10:50am 8ft 8s 6s 7 9 mph 1014.4mb 55f 57f
9:50am 6ft 8s 6s 9 11 mph 1013.5mb 55f 57f
8:50am 6ft 8s  -  7 9 mph 1012.5mb 55f 56f
7:50am  -   -   -  9
mph
1011.6mb 55f 56f
6:50am 7ft  -  6s 9 11 mph 1010.6mb 55f 56f
5:50am 7ft 8s  -  9 11 mph 1009.9mb 55f 56f
4:50am 7ft  -  6s 9 11 mph 1009.3mb 55f 56f
3:50am 7ft 8s  -  9 11 mph 1008.6mb 55f 56f
2:50am 7ft  -  6s 7 11 mph 1008.1mb 55f 56f
1:50am 7ft 8s  -  11 13 mph 1007.6mb 55f 56f
12:50am  -   -   -  11 13 mph 1007mb 55f 56f
Mon 08/22 11:50pm  -   -   -  9 11 mph 1006.5mb 55f 56f
10:50pm 6.5ft  -  6s 9 11 mph 1005.8mb 55f 56f
9:50pm 6.5ft 7s 6s 9 11 mph 1005.2mb 55f 56f
8:50pm 6.5ft 8s 6s 11
mph
1004.2mb 55f 56f
7:50pm 6.5ft 7s  -  9 11 mph 1003.4mb 55f 56f
6:50pm  -   -   -  9 13 mph 1003mb 55f 56f
5:50pm  -   -   -  13 16 mph 1002.3mb 55f 56f
4:50pm  -   -   -  13
mph
- - 56f
3:50pm 7ft  -  6s 11 13 mph 1001.8mb 55f 56f
2:50pm 7ft 7s 6s 13 16 mph 1001.5mb 55f 56f
1:50pm 7.5ft 7s 6s 11 13 mph 1001.3mb 55f 56f
12:50pm 7ft 6s  -  13 16 mph 1001.1mb 55f 55f
11:50am 7ft  -  6s 16 22 mph 1001.1mb 55f 56f
10:50am 7ft 9s 6s 13 16 mph 1001.2mb 55f 55f
9:50am 7ft 9s 6s 16 20 mph 1001.2mb 55f 55f
7:50am 7ft 9s  -  16 18 mph 1001.3mb 55f 55f
6:50am  -   -   -  13
mph
- - -
5:50am  -   -   -  13 16 mph 1001.3mb 55f 55f
4:50am  -   -   -  9 11 mph 1001.3mb 54f 56f
3:50am  -   -   -  11 13 mph 1001.6mb 55f 56f
2:50am  -   -   -  18 20 mph 1002.2mb 55f 56f
1:50am  -   -   -  20 22 mph 1002.9mb 56f 56f